Sea Success — VRS4325 — position and weather

sailwx.info

Track history (hours):
 
Tides and Currents Weather Stations Pressure Air Temp Water Temp Dewpoint Dewpoint Depression Visibility Wind Speed Wind Dir Waves Ship Positions

Sea Success

Last reported at 2017-Jul-21 08:09 UTC. Time now 2017-Jul-21 12:48 UTC.
Position N 22°18' E 114°09'.

Length 27 m.

Type: High speed craft. MMSI: 477995071.

Date/timePositionNaut miles runAvg speedWind from/ knotsBaromVisibWave heightAir tempDewpointWater temp
2017-Jul-21 08:09N 22°18' E 114°09'0 0.0
2017-Jul-21 08:00N 22°18' E 114°09'0 0.0
2017-Jul-21 07:29N 22°18' E 114°09'0 0.0
2017-Jul-21 06:59N 22°18' E 114°09'1 0.7
2017-Jul-21 05:52N 22°18' E 114°09'1 0.0
2017-Jul-19 08:54N 22°18' E 114°09'1 2.3
2017-Jul-19 08:29N 22°17' E 114°10'1 0.2
2017-Jul-19 05:52N 22°18' E 114°09'1 1.7
2017-Jul-19 05:30N 22°17' E 114°10'1 0.3
2017-Jul-19 02:51N 22°18' E 114°09'1 2.2
2017-Jul-19 02:30N 22°17' E 114°10'2 1.4
2017-Jul-19 01:06N 22°19' E 114°09'0 1.5
2017-Jul-19 00:47N 22°20' E 114°09'2 7.2
2017-Jul-19 00:29N 22°17' E 114°09'1 0.6
2017-Jul-18 23:25N 22°18' E 114°09'1 1.8
2017-Jul-18 23:00N 22°17' E 114°09'0 0.2
2017-Jul-18 22:29N 22°17' E 114°10'0 0.0
2017-Jul-18 22:00N 22°17' E 114°10'0 0.0
2017-Jul-18 21:26N 22°17' E 114°10'0 0.0
2017-Jul-18 20:56N 22°17' E 114°10'0 0.0
2017-Jul-18 20:27N 22°17' E 114°10'1 0.6
2017-Jul-18 19:07N 22°18' E 114°09'1 4.0
2017-Jul-18 18:55N 22°17' E 114°10'0 0.1
2017-Jul-18 18:26N 22°17' E 114°10'0 0.0
2017-Jul-18 17:56N 22°17' E 114°10'0 0.0
2017-Jul-18 17:16N 22°17' E 114°10'0 0.0
2017-Jul-18 16:16N 22°17' E 114°10'0 0.0
2017-Jul-18 15:50N 22°17' E 114°10'1 0.4
2017-Jul-18 13:23N 22°18' E 114°09'1 2.5
2017-Jul-18 13:00N 22°17' E 114°10'1 0.7
2017-Jul-18 11:47N 22°18' E 114°09'1 3.0
2017-Jul-18 11:30N 22°17' E 114°10'0 0.0
2017-Jul-18 10:59N 22°17' E 114°10'0 0.0
2017-Jul-18 10:27N 22°17' E 114°10'1 0.7
2017-Jul-18 08:56N 22°18' E 114°08'1 2.5
2017-Jul-18 08:30N 22°17' E 114°10'1 0.4
2017-Jul-18 05:54N 22°18' E 114°08'1 3.0
2017-Jul-18 05:30N 22°17' E 114°10'1 0.3
2017-Jul-18 02:52N 22°18' E 114°09'1 1.9
2017-Jul-18 02:27N 22°17' E 114°10'2 1.6
2017-Jul-18 01:14N 22°19' E 114°09'0 1.6
2017-Jul-18 00:59N 22°20' E 114°09'2 1.2
2017-Jul-17 23:26N 22°18' E 114°09'1 1.6
2017-Jul-17 22:56N 22°17' E 114°09'0 0.0
2017-Jul-17 22:29N 22°17' E 114°09'0 0.0
2017-Jul-17 21:57N 22°17' E 114°09'0 0.0
2017-Jul-17 21:25N 22°17' E 114°09'0 0.0
2017-Jul-17 20:59N 22°17' E 114°09'0 0.0
2017-Jul-17 20:29N 22°17' E 114°09'0 1.0
2017-Jul-17 20:00N 22°18' E 114°09'0 0.4
2017-Jul-17 19:07N 22°18' E 114°09'1 6.9
2017-Jul-17 19:00N 22°17' E 114°10'0 0.0
2017-Jul-17 18:30N 22°17' E 114°10'0 0.0
2017-Jul-17 17:57N 22°17' E 114°10'0 0.0
2017-Jul-17 17:30N 22°17' E 114°10'0 0.0
2017-Jul-17 16:58N 22°17' E 114°10'0 0.0
2017-Jul-17 16:25N 22°17' E 114°10'0 0.0
2017-Jul-17 15:55N 22°17' E 114°10'0 0.0
2017-Jul-17 15:30N 22°17' E 114°10'0 0.0
2017-Jul-17 14:56N 22°17' E 114°10'0 0.0
2017-Jul-17 14:30N 22°17' E 114°10'1 0.7
2017-Jul-17 13:21N 22°18' E 114°09'1 2.1
2017-Jul-17 13:00N 22°17' E 114°10'1 0.7
2017-Jul-17 11:47N 22°18' E 114°09'1 3.1
2017-Jul-17 11:30N 22°17' E 114°10'0 0.0
2017-Jul-17 11:00N 22°17' E 114°10'0 0.0
2017-Jul-17 10:30N 22°17' E 114°10'1 0.5
2017-Jul-17 08:55N 22°18' E 114°09'1 2.0
2017-Jul-17 08:30N 22°17' E 114°10'1 0.3
2017-Jul-17 05:52N 22°18' E 114°09'1 2.2
2017-Jul-17 05:29N 22°17' E 114°10'1 0.4
2017-Jul-17 02:53N 22°18' E 114°09'1 2.5
2017-Jul-17 02:30N 22°17' E 114°10'2 1.7
2017-Jul-17 01:06N 22°20' E 114°09'0 0.0
2017-Jul-17 01:00N 22°20' E 114°09'2 4.3
2017-Jul-17 00:30N 22°17' E 114°09'1 0.5
2017-Jul-16 23:26N 22°18' E 114°09'1 1.0
2017-Jul-16 22:41N 22°17' E 114°09'0 0.9
2017-Jul-16 22:30N 22°17' E 114°10'0 0.2
2017-Jul-16 22:00N 22°17' E 114°10'0 0.0
2017-Jul-16 21:29N 22°17' E 114°10'0 0.0
2017-Jul-16 20:54N 22°17' E 114°10'0 0.0
2017-Jul-16 20:29N 22°17' E 114°10'1 1.2
2017-Jul-16 20:01N 22°18' E 114°09'0 0.2
2017-Jul-16 19:07N 22°18' E 114°09'1 6.1
2017-Jul-16 19:00N 22°17' E 114°10'0 0.0
2017-Jul-16 18:26N 22°17' E 114°10'0 0.0
2017-Jul-16 17:48N 22°17' E 114°10'0 0.0
2017-Jul-16 17:30N 22°17' E 114°10'0 0.0
2017-Jul-16 17:00N 22°17' E 114°10'0 0.0
2017-Jul-16 16:29N 22°17' E 114°10'0 0.0
2017-Jul-16 15:58N 22°17' E 114°10'0 0.0
2017-Jul-16 15:30N 22°17' E 114°10'0 0.0
2017-Jul-16 15:00N 22°17' E 114°10'0 0.0
2017-Jul-16 14:13N 22°17' E 114°10'0 0.0
2017-Jul-16 14:00N 22°17' E 114°10'1 0.5
2017-Jul-16 12:27N 22°18' E 114°09'1 1.8
2017-Jul-16 12:00N 22°17' E 114°10'1 0.7
2017-Jul-16 10:48N 22°18' E 114°09'1 3.1
2017-Jul-16 10:30N 22°17' E 114°10'1 0.6
2017-Jul-16 09:08N 22°18' E 114°09'1 6.3
2017-Jul-16 09:00N 22°17' E 114°10'1 0.3
2017-Jul-16 05:47N 22°18' E 114°08'1 4.0
2017-Jul-16 05:31N 22°17' E 114°10'1 0.2
2017-Jul-16 02:25N 22°18' E 114°09'1 1.7
2017-Jul-16 02:00N 22°17' E 114°10'1 0.8
2017-Jul-16 00:48N 22°18' E 114°09'1 3.0
2017-Jul-16 00:30N 22°17' E 114°10'1 1.7
2017-Jul-16 00:00N 22°18' E 114°09'2 3.1
2017-Jul-15 23:29N 22°20' E 114°09'2 4.8
2017-Jul-15 22:59N 22°17' E 114°10'0 0.0
2017-Jul-15 22:30N 22°17' E 114°10'0 0.0
2017-Jul-15 21:48N 22°17' E 114°10'0 0.0
2017-Jul-15 21:28N 22°17' E 114°10'0 0.0
2017-Jul-15 20:43N 22°17' E 114°10'0 0.0
2017-Jul-15 20:22N 22°17' E 114°10'0 0.0
2017-Jul-15 19:58N 22°17' E 114°10'0 0.0
2017-Jul-15 19:19N 22°17' E 114°10'0 0.0
2017-Jul-15 18:59N 22°17' E 114°10'0 0.0
2017-Jul-15 18:28N 22°17' E 114°10'0 0.0
2017-Jul-15 17:59N 22°17' E 114°10'0 0.0
2017-Jul-15 17:25N 22°17' E 114°10'0 0.0
2017-Jul-15 15:57N 22°17' E 114°10'1 0.8
2017-Jul-15 14:51N 22°18' E 114°09'0 0.2
2017-Jul-15 12:39N 22°18' E 114°08'1 8.2
2017-Jul-15 12:30N 22°17' E 114°10'1 0.6
2017-Jul-15 11:07N 22°18' E 114°09'1 6.4
2017-Jul-15 11:00N 22°17' E 114°10'1 0.7
2017-Jul-15 09:37N 22°18' E 114°09'1 9.3
2017-Jul-15 09:30N 22°17' E 114°10'0 0.0
2017-Jul-15 09:00N 22°17' E 114°10'1 0.5
2017-Jul-15 07:25N 22°18' E 114°09'0 0.1
2017-Jul-15 05:56N 22°18' E 114°09'1 1.0
2017-Jul-15 05:10N 22°17' E 114°09'1 0.6
2017-Jul-15 03:55N 22°18' E 114°09'0 0.1
2017-Jul-15 02:26N 22°18' E 114°09'1 1.3
2017-Jul-15 02:00N 22°18' E 114°09'1 2.1
2017-Jul-15 01:28N 22°19' E 114°09'1 2.9
2017-Jul-15 01:00N 22°18' E 114°09'0 0.4
2017-Jul-14 23:47N 22°18' E 114°09'1 2.3
2017-Jul-14 23:30N 22°17' E 114°09'0 0.3
2017-Jul-14 22:12N 22°18' E 114°09'0 1.2
2017-Jul-14 22:00N 22°17' E 114°09'1 0.1
2017-Jul-14 12:37N 22°18' E 114°09'1 7.3
2017-Jul-14 12:30N 22°17' E 114°10'1 0.6
2017-Jul-14 11:07N 22°18' E 114°09'1 7.2
2017-Jul-14 11:00N 22°17' E 114°10'1 0.6
2017-Jul-14 09:38N 22°18' E 114°09'1 6.1
2017-Jul-14 09:30N 22°17' E 114°10'0 0.0
2017-Jul-14 09:00N 22°17' E 114°10'1 0.6
2017-Jul-14 07:27N 22°18' E 114°09'0 0.2
2017-Jul-14 05:55N 22°18' E 114°09'0 0.6
2017-Jul-14 05:12N 22°17' E 114°09'0 0.4
2017-Jul-14 03:58N 22°18' E 114°09'1 0.3
2017-Jul-14 01:41N 22°18' E 114°09'0 0.8
2017-Jul-14 01:09N 22°19' E 114°09'1 5.8
2017-Jul-14 00:54N 22°17' E 114°10'1 0.8
2017-Jul-13 23:48N 22°18' E 114°09'1 1.8
2017-Jul-13 23:30N 22°18' E 114°09'0 0.4
2017-Jul-13 22:13N 22°18' E 114°09'0 0.0
2017-Jul-13 12:37N 22°18' E 114°09'1 2.9
2017-Jul-13 12:17N 22°17' E 114°10'1 0.7
2017-Jul-13 11:07N 22°18' E 114°09'1 2.8
2017-Jul-13 10:49N 22°17' E 114°10'1 0.5
2017-Jul-13 09:36N 22°18' E 114°09'0 0.2
2017-Jul-13 07:08N 22°17' E 114°09'0 0.4
2017-Jul-13 05:55N 22°18' E 114°09'0 0.0
2017-Jul-13 03:57N 22°18' E 114°09'0 0.0
2017-Jul-13 02:26N 22°18' E 114°09'1 1.7
2017-Jul-13 02:00N 22°18' E 114°10'1 1.0
2017-Jul-13 01:06N 22°18' E 114°09'112.9
2017-Jul-13 01:00N 22°17' E 114°10'1 0.7
2017-Jul-12 23:48N 22°18' E 114°09'1 2.9
2017-Jul-12 23:30N 22°17' E 114°10'1 0.6
2017-Jul-12 22:12N 22°18' E 114°09'1 4.3
2017-Jul-12 22:00N 22°17' E 114°10'1 0.1
2017-Jul-12 12:38N 22°18' E 114°09'1 2.5
2017-Jul-12 12:16N 22°17' E 114°10'1 0.8
2017-Jul-12 11:08N 22°18' E 114°09'1 2.6
2017-Jul-12 10:48N 22°17' E 114°10'0 0.3
2017-Jul-12 09:35N 22°18' E 114°09'0 0.4
2017-Jul-12 08:50N 22°17' E 114°10'1 0.4
2017-Jul-12 07:24N 22°18' E 114°09'0 0.2
2017-Jul-12 05:56N 22°18' E 114°09'1 0.6
2017-Jul-12 04:31N 22°18' E 114°09'0 2.0
2017-Jul-12 04:30N 22°18' E 114°09'  
Track history (hours):
 
Tides and Currents Weather Stations Pressure Air Temp Water Temp Dewpoint Dewpoint Depression Visibility Wind Speed Wind Dir Waves Ship Positions

Sea Success

Last reported at 2017-Jul-21 08:09 UTC. Time now 2017-Jul-21 12:48 UTC.
Position N 22°18' E 114°09'.

Length 27 m.

Type: High speed craft. MMSI: 477995071.

Date/timePositionNaut miles runAvg speedWind from/ knotsBaromVisibWave heightAir tempDewpointWater temp
2017-Jul-21 08:09N 22°18' E 114°09'0 0.0
2017-Jul-21 08:00N 22°18' E 114°09'0 0.0
2017-Jul-21 07:29N 22°18' E 114°09'0 0.0
2017-Jul-21 06:59N 22°18' E 114°09'1 0.7
2017-Jul-21 05:52N 22°18' E 114°09'1 0.0
2017-Jul-19 08:54N 22°18' E 114°09'1 2.3
2017-Jul-19 08:29N 22°17' E 114°10'1 0.2
2017-Jul-19 05:52N 22°18' E 114°09'1 1.7
2017-Jul-19 05:30N 22°17' E 114°10'1 0.3
2017-Jul-19 02:51N 22°18' E 114°09'1 2.2
2017-Jul-19 02:30N 22°17' E 114°10'2 1.4
2017-Jul-19 01:06N 22°19' E 114°09'0 1.5
2017-Jul-19 00:47N 22°20' E 114°09'2 7.2
2017-Jul-19 00:29N 22°17' E 114°09'1 0.6
2017-Jul-18 23:25N 22°18' E 114°09'1 1.8
2017-Jul-18 23:00N 22°17' E 114°09'0 0.2
2017-Jul-18 22:29N 22°17' E 114°10'0 0.0
2017-Jul-18 22:00N 22°17' E 114°10'0 0.0
2017-Jul-18 21:26N 22°17' E 114°10'0 0.0
2017-Jul-18 20:56N 22°17' E 114°10'0 0.0
2017-Jul-18 20:27N 22°17' E 114°10'1 0.6
2017-Jul-18 19:07N 22°18' E 114°09'1 4.0
2017-Jul-18 18:55N 22°17' E 114°10'0 0.1
2017-Jul-18 18:26N 22°17' E 114°10'0 0.0
2017-Jul-18 17:56N 22°17' E 114°10'0 0.0
2017-Jul-18 17:16N 22°17' E 114°10'0 0.0
2017-Jul-18 16:16N 22°17' E 114°10'0 0.0
2017-Jul-18 15:50N 22°17' E 114°10'1 0.4
2017-Jul-18 13:23N 22°18' E 114°09'1 2.5
2017-Jul-18 13:00N 22°17' E 114°10'1 0.7
2017-Jul-18 11:47N 22°18' E 114°09'1 3.0
2017-Jul-18 11:30N 22°17' E 114°10'0 0.0
2017-Jul-18 10:59N 22°17' E 114°10'0 0.0
2017-Jul-18 10:27N 22°17' E 114°10'1 0.7
2017-Jul-18 08:56N 22°18' E 114°08'1 2.5
2017-Jul-18 08:30N 22°17' E 114°10'1 0.4
2017-Jul-18 05:54N 22°18' E 114°08'1 3.0
2017-Jul-18 05:30N 22°17' E 114°10'1 0.3
2017-Jul-18 02:52N 22°18' E 114°09'1 1.9
2017-Jul-18 02:27N 22°17' E 114°10'2 1.6
2017-Jul-18 01:14N 22°19' E 114°09'0 1.6
2017-Jul-18 00:59N 22°20' E 114°09'2 1.2
2017-Jul-17 23:26N 22°18' E 114°09'1 1.6
2017-Jul-17 22:56N 22°17' E 114°09'0 0.0
2017-Jul-17 22:29N 22°17' E 114°09'0 0.0
2017-Jul-17 21:57N 22°17' E 114°09'0 0.0
2017-Jul-17 21:25N 22°17' E 114°09'0 0.0
2017-Jul-17 20:59N 22°17' E 114°09'0 0.0
2017-Jul-17 20:29N 22°17' E 114°09'0 1.0
2017-Jul-17 20:00N 22°18' E 114°09'0 0.4
2017-Jul-17 19:07N 22°18' E 114°09'1 6.9
2017-Jul-17 19:00N 22°17' E 114°10'0 0.0
2017-Jul-17 18:30N 22°17' E 114°10'0 0.0
2017-Jul-17 17:57N 22°17' E 114°10'0 0.0
2017-Jul-17 17:30N 22°17' E 114°10'0 0.0
2017-Jul-17 16:58N 22°17' E 114°10'0 0.0
2017-Jul-17 16:25N 22°17' E 114°10'0 0.0
2017-Jul-17 15:55N 22°17' E 114°10'0 0.0
2017-Jul-17 15:30N 22°17' E 114°10'0 0.0
2017-Jul-17 14:56N 22°17' E 114°10'0 0.0
2017-Jul-17 14:30N 22°17' E 114°10'1 0.7
2017-Jul-17 13:21N 22°18' E 114°09'1 2.1
2017-Jul-17 13:00N 22°17' E 114°10'1 0.7
2017-Jul-17 11:47N 22°18' E 114°09'1 3.1
2017-Jul-17 11:30N 22°17' E 114°10'0 0.0
2017-Jul-17 11:00N 22°17' E 114°10'0 0.0
2017-Jul-17 10:30N 22°17' E 114°10'1 0.5
2017-Jul-17 08:55N 22°18' E 114°09'1 2.0
2017-Jul-17 08:30N 22°17' E 114°10'1 0.3
2017-Jul-17 05:52N 22°18' E 114°09'1 2.2
2017-Jul-17 05:29N 22°17' E 114°10'1 0.4
2017-Jul-17 02:53N 22°18' E 114°09'1 2.5
2017-Jul-17 02:30N 22°17' E 114°10'2 1.7
2017-Jul-17 01:06N 22°20' E 114°09'0 0.0
2017-Jul-17 01:00N 22°20' E 114°09'2 4.3
2017-Jul-17 00:30N 22°17' E 114°09'1 0.5
2017-Jul-16 23:26N 22°18' E 114°09'1 1.0
2017-Jul-16 22:41N 22°17' E 114°09'0 0.9
2017-Jul-16 22:30N 22°17' E 114°10'0 0.2
2017-Jul-16 22:00N 22°17' E 114°10'0 0.0
2017-Jul-16 21:29N 22°17' E 114°10'0 0.0
2017-Jul-16 20:54N 22°17' E 114°10'0 0.0
2017-Jul-16 20:29N 22°17' E 114°10'1 1.2
2017-Jul-16 20:01N 22°18' E 114°09'0 0.2
2017-Jul-16 19:07N 22°18' E 114°09'1 6.1
2017-Jul-16 19:00N 22°17' E 114°10'0 0.0
2017-Jul-16 18:26N 22°17' E 114°10'0 0.0
2017-Jul-16 17:48N 22°17' E 114°10'0 0.0
2017-Jul-16 17:30N 22°17' E 114°10'0 0.0
2017-Jul-16 17:00N 22°17' E 114°10'0 0.0
2017-Jul-16 16:29N 22°17' E 114°10'0 0.0
2017-Jul-16 15:58N 22°17' E 114°10'0 0.0
2017-Jul-16 15:30N 22°17' E 114°10'0 0.0
2017-Jul-16 15:00N 22°17' E 114°10'0 0.0
2017-Jul-16 14:13N 22°17' E 114°10'0 0.0
2017-Jul-16 14:00N 22°17' E 114°10'1 0.5
2017-Jul-16 12:27N 22°18' E 114°09'1 1.8
2017-Jul-16 12:00N 22°17' E 114°10'1 0.7
2017-Jul-16 10:48N 22°18' E 114°09'1 3.1
2017-Jul-16 10:30N 22°17' E 114°10'1 0.6
2017-Jul-16 09:08N 22°18' E 114°09'1 6.3
2017-Jul-16 09:00N 22°17' E 114°10'1 0.3
2017-Jul-16 05:47N 22°18' E 114°08'1 4.0
2017-Jul-16 05:31N 22°17' E 114°10'1 0.2
2017-Jul-16 02:25N 22°18' E 114°09'1 1.7
2017-Jul-16 02:00N 22°17' E 114°10'1 0.8
2017-Jul-16 00:48N 22°18' E 114°09'1 3.0
2017-Jul-16 00:30N 22°17' E 114°10'1 1.7
2017-Jul-16 00:00N 22°18' E 114°09'2 3.1
2017-Jul-15 23:29N 22°20' E 114°09'2 4.8
2017-Jul-15 22:59N 22°17' E 114°10'0 0.0
2017-Jul-15 22:30N 22°17' E 114°10'0 0.0
2017-Jul-15 21:48N 22°17' E 114°10'0 0.0
2017-Jul-15 21:28N 22°17' E 114°10'0 0.0
2017-Jul-15 20:43N 22°17' E 114°10'0 0.0
2017-Jul-15 20:22N 22°17' E 114°10'0 0.0
2017-Jul-15 19:58N 22°17' E 114°10'0 0.0
2017-Jul-15 19:19N 22°17' E 114°10'0 0.0
2017-Jul-15 18:59N 22°17' E 114°10'0 0.0
2017-Jul-15 18:28N 22°17' E 114°10'0 0.0
2017-Jul-15 17:59N 22°17' E 114°10'0 0.0
2017-Jul-15 17:25N 22°17' E 114°10'0 0.0
2017-Jul-15 15:57N 22°17' E 114°10'1 0.8
2017-Jul-15 14:51N 22°18' E 114°09'0 0.2
2017-Jul-15 12:39N 22°18' E 114°08'1 8.2
2017-Jul-15 12:30N 22°17' E 114°10'1 0.6
2017-Jul-15 11:07N 22°18' E 114°09'1 6.4
2017-Jul-15 11:00N 22°17' E 114°10'1 0.7
2017-Jul-15 09:37N 22°18' E 114°09'1 9.3
2017-Jul-15 09:30N 22°17' E 114°10'0 0.0
2017-Jul-15 09:00N 22°17' E 114°10'1 0.5
2017-Jul-15 07:25N 22°18' E 114°09'0 0.1
2017-Jul-15 05:56N 22°18' E 114°09'1 1.0
2017-Jul-15 05:10N 22°17' E 114°09'1 0.6
2017-Jul-15 03:55N 22°18' E 114°09'0 0.1
2017-Jul-15 02:26N 22°18' E 114°09'1 1.3
2017-Jul-15 02:00N 22°18' E 114°09'1 2.1
2017-Jul-15 01:28N 22°19' E 114°09'1 2.9
2017-Jul-15 01:00N 22°18' E 114°09'0 0.4
2017-Jul-14 23:47N 22°18' E 114°09'1 2.3
2017-Jul-14 23:30N 22°17' E 114°09'0 0.3
2017-Jul-14 22:12N 22°18' E 114°09'0 1.2
2017-Jul-14 22:00N 22°17' E 114°09'1 0.1
2017-Jul-14 12:37N 22°18' E 114°09'1 7.3
2017-Jul-14 12:30N 22°17' E 114°10'1 0.6
2017-Jul-14 11:07N 22°18' E 114°09'1 7.2
2017-Jul-14 11:00N 22°17' E 114°10'1 0.6
2017-Jul-14 09:38N 22°18' E 114°09'1 6.1
2017-Jul-14 09:30N 22°17' E 114°10'0 0.0
2017-Jul-14 09:00N 22°17' E 114°10'1 0.6
2017-Jul-14 07:27N 22°18' E 114°09'0 0.2
2017-Jul-14 05:55N 22°18' E 114°09'0 0.6
2017-Jul-14 05:12N 22°17' E 114°09'0 0.4
2017-Jul-14 03:58N 22°18' E 114°09'1 0.3
2017-Jul-14 01:41N 22°18' E 114°09'0 0.8
2017-Jul-14 01:09N 22°19' E 114°09'1 5.8
2017-Jul-14 00:54N 22°17' E 114°10'1 0.8
2017-Jul-13 23:48N 22°18' E 114°09'1 1.8
2017-Jul-13 23:30N 22°18' E 114°09'0 0.4
2017-Jul-13 22:13N 22°18' E 114°09'0 0.0
2017-Jul-13 12:37N 22°18' E 114°09'1 2.9
2017-Jul-13 12:17N 22°17' E 114°10'1 0.7
2017-Jul-13 11:07N 22°18' E 114°09'1 2.8
2017-Jul-13 10:49N 22°17' E 114°10'1 0.5
2017-Jul-13 09:36N 22°18' E 114°09'0 0.2
2017-Jul-13 07:08N 22°17' E 114°09'0 0.4
2017-Jul-13 05:55N 22°18' E 114°09'0 0.0
2017-Jul-13 03:57N 22°18' E 114°09'0 0.0
2017-Jul-13 02:26N 22°18' E 114°09'1 1.7
2017-Jul-13 02:00N 22°18' E 114°10'1 1.0
2017-Jul-13 01:06N 22°18' E 114°09'112.9
2017-Jul-13 01:00N 22°17' E 114°10'1 0.7
2017-Jul-12 23:48N 22°18' E 114°09'1 2.9
2017-Jul-12 23:30N 22°17' E 114°10'1 0.6
2017-Jul-12 22:12N 22°18' E 114°09'1 4.3
2017-Jul-12 22:00N 22°17' E 114°10'1 0.1
2017-Jul-12 12:38N 22°18' E 114°09'1 2.5
2017-Jul-12 12:16N 22°17' E 114°10'1 0.8
2017-Jul-12 11:08N 22°18' E 114°09'1 2.6
2017-Jul-12 10:48N 22°17' E 114°10'0 0.3
2017-Jul-12 09:35N 22°18' E 114°09'0 0.4
2017-Jul-12 08:50N 22°17' E 114°10'1 0.4
2017-Jul-12 07:24N 22°18' E 114°09'0 0.2
2017-Jul-12 05:56N 22°18' E 114°09'1 0.6
2017-Jul-12 04:31N 22°18' E 114°09'0 2.0
2017-Jul-12 04:30N 22°18' E 114°09'  

Dump ship's entire track history